Time;durP1;ratioP1;P1;durP2;ratioP2;P2;SDS_P1;SDS_P2;PMS_P1;PMS_P2;Temp;Humidity;BMP_temperature;BMP_pressure;BME280_temperature;BME280_humidity;BME280_pressure;Samples;Min_cycle;Max_cycle;Signal;HPM_P1;HPM_P2
2023/05/12 06:31:34;;;;;;;14.70;10.82;;;13.70;99.90;;;;;;6847240;23;20070;-80
2023/05/12 06:34:36;;;;;;;14.65;10.20;;;13.70;99.90;;;;;;6172513;28;20130;-80
2023/05/12 06:37:38;;;;;;;14.43;11.13;;;13.70;99.90;;;;;;6175522;28;20407;-80
2023/05/12 06:40:40;;;;;;;14.70;11.15;;;13.80;99.90;;;;;;6175066;28;20142;-80
2023/05/12 06:43:42;;;;;;;14.43;10.65;;;13.80;99.90;;;;;;6175277;28;20408;-80
2023/05/12 06:46:45;;;;;;;13.68;9.75;;;13.80;99.90;;;;;;6175269;28;20503;-80
2023/05/12 06:49:48;;;;;;;14.90;10.50;;;13.90;99.90;;;;;;6167284;28;20051;-79
2023/05/12 06:52:52;;;;;;;12.63;9.52;;;13.90;99.90;;;;;;6175318;28;20054;-79
2023/05/12 06:55:54;;;;;;;13.45;9.23;;;13.80;99.90;;;;;;6175136;28;20066;-80
2023/05/12 06:58:59;;;;;;;12.25;8.77;;;13.90;99.90;;;;;;6175165;28;20042;-80
2023/05/12 07:02:02;;;;;;;12.80;9.35;;;14.00;99.90;;;;;;6174503;28;20058;-80
2023/05/12 07:05:05;;;;;;;11.25;8.65;;;14.00;99.90;;;;;;6175183;28;20043;-80
2023/05/12 07:08:07;;;;;;;10.35;7.85;;;14.10;99.90;;;;;;6159429;28;20078;-80
2023/05/12 07:11:09;;;;;;;11.07;7.53;;;14.20;99.90;;;;;;6172621;28;20054;-80
2023/05/12 07:14:11;;;;;;;11.48;8.25;;;14.30;99.90;;;;;;6174841;28;20050;-80
2023/05/12 07:17:14;;;;;;;10.77;8.32;;;14.40;99.90;;;;;;6175233;28;20050;-80
2023/05/12 07:20:17;;;;;;;12.48;9.05;;;14.40;99.90;;;;;;6175217;28;20043;-81
2023/05/12 07:23:18;;;;;;;13.00;9.48;;;14.20;99.90;;;;;;6175192;28;20047;-81
2023/05/12 07:26:23;;;;;;;13.80;10.23;;;13.80;99.90;;;;;;6174903;28;20046;-81
2023/05/12 07:29:25;;;;;;;13.85;9.40;;;13.80;99.90;;;;;;6174409;28;20404;-81
2023/05/12 07:32:28;;;;;;;11.88;7.70;;;14.10;99.90;;;;;;6157508;28;20059;-81
2023/05/12 07:35:30;;;;;;;13.32;9.25;;;14.30;99.90;;;;;;6174974;28;20047;-81
2023/05/12 07:38:32;;;;;;;12.75;8.52;;;14.40;99.90;;;;;;6174241;28;20488;-80
2023/05/12 07:41:34;;;;;;;11.57;7.78;;;14.60;99.90;;;;;;6174588;28;20050;-81
2023/05/12 07:44:36;;;;;;;10.82;8.07;;;14.60;99.90;;;;;;6174621;28;20054;-80
2023/05/12 07:47:39;;;;;;;11.85;7.50;;;14.80;99.90;;;;;;6174683;28;20047;-81
2023/05/12 07:50:41;;;;;;;11.15;7.60;;;14.90;99.90;;;;;;6174744;28;20125;-80
2023/05/12 07:53:43;;;;;;;11.45;8.48;;;15.10;99.90;;;;;;6174650;28;20074;-81
2023/05/12 07:56:45;;;;;;;11.15;8.45;;;15.00;99.90;;;;;;6174283;28;20059;-81
2023/05/12 07:59:48;;;;;;;10.98;8.05;;;15.00;99.90;;;;;;6166690;28;20204;-82
2023/05/12 08:02:52;;;;;;;10.10;6.65;;;15.00;99.90;;;;;;6177620;28;20502;-81
2023/05/12 08:05:54;;;;;;;8.30;6.07;;;15.10;99.90;;;;;;6179283;28;20125;-80
2023/05/12 08:08:57;;;;;;;8.02;5.68;;;15.20;99.90;;;;;;6172263;28;20477;-80
2023/05/12 08:11:59;;;;;;;9.90;6.20;;;15.30;99.90;;;;;;6161279;28;20506;-80
2023/05/12 08:15:00;;;;;;;8.77;6.68;;;15.00;99.90;;;;;;6178570;28;20046;-80
2023/05/12 08:18:04;;;;;;;8.45;6.25;;;15.10;99.90;;;;;;6178434;28;20078;-80
2023/05/12 08:21:06;;;;;;;7.75;5.50;;;15.30;99.90;;;;;;6178607;28;20073;-80
2023/05/12 08:24:08;;;;;;;9.13;5.13;;;15.30;99.90;;;;;;6178177;28;20051;-80
2023/05/12 08:27:10;;;;;;;7.07;4.75;;;15.30;99.90;;;;;;6178724;28;20476;-80
2023/05/12 08:30:13;;;;;;;6.22;4.47;;;15.30;99.90;;;;;;6178470;28;20046;-80
2023/05/12 08:33:16;;;;;;;6.35;4.45;;;15.40;99.90;;;;;;6178432;28;20049;-81
2023/05/12 08:36:18;;;;;;;6.35;4.43;;;15.60;99.90;;;;;;6178444;28;20054;-83
2023/05/12 08:39:20;;;;;;;7.93;4.78;;;15.60;99.90;;;;;;6178370;28;20043;-82
2023/05/12 08:42:35;;;;;;;11.50;5.17;;;15.40;99.90;;;;;;6178527;28;20054;-82
2023/05/12 08:45:38;;;;;;;12.60;8.43;;;15.30;99.90;;;;;;6183049;28;20117;-82
2023/05/12 08:48:41;;;;;;;6.50;4.38;;;15.40;99.90;;;;;;6178976;28;20058;-82
2023/05/12 08:51:44;;;;;;;6.00;4.10;;;15.80;99.90;;;;;;6179525;28;20043;-82
2023/05/12 08:54:47;;;;;;;7.05;4.47;;;15.90;99.90;;;;;;6181568;28;20404;-81
2023/05/12 08:57:49;;;;;;;5.97;3.90;;;16.10;99.90;;;;;;6178350;28;20049;-83
2023/05/12 09:00:52;;;;;;;5.70;4.18;;;15.90;99.90;;;;;;6178135;28;20047;-81
2023/05/12 09:03:55;;;;;;;6.90;3.80;;;15.70;99.90;;;;;;6178001;28;20058;-80
2023/05/12 09:06:58;;;;;;;4.68;3.10;;;15.80;99.90;;;;;;6177726;28;20510;-80
2023/05/12 09:10:03;;;;;;;6.60;3.70;;;16.00;99.90;;;;;;6177921;28;20054;-88
2023/05/12 09:13:17;;;;;;;7.80;3.67;;;16.00;99.90;;;;;;6153699;28;20060;-87
2023/05/12 09:16:23;;;;;;;4.60;3.25;;;16.10;99.90;;;;;;6154463;29;20051;-88
2023/05/12 09:19:27;;;;;;;5.57;3.20;;;16.40;99.90;;;;;;6154128;29;20517;-88
2023/05/12 09:22:29;;;;;;;5.95;3.45;;;16.50;99.90;;;;;;6154967;29;20058;-89
2023/05/12 09:25:31;;;;;;;6.68;4.15;;;16.50;99.90;;;;;;6161869;28;20046;-89
2023/05/12 09:28:37;;;;;;;6.75;3.65;;;16.30;99.90;;;;;;6178092;28;20047;-90
2023/05/12 09:31:39;;;;;;;5.28;3.53;;;16.00;99.90;;;;;;6177900;28;20070;-88
2023/05/12 09:34:51;;;;;;;5.80;3.25;;;16.40;99.90;;;;;;6178652;28;20047;-88
2023/05/12 09:37:52;;;;;;;6.53;3.45;;;16.50;99.90;;;;;;6178262;28;20053;-89
2023/05/12 09:40:54;;;;;;;5.78;3.50;;;16.70;99.90;;;;;;6178534;28;20058;-87
2023/05/12 09:43:56;;;;;;;4.43;3.03;;;16.60;99.90;;;;;;6177698;28;20051;-87
2023/05/12 09:47:06;;;;;;;6.07;3.33;;;16.90;99.90;;;;;;6177638;28;20039;-87
2023/05/12 09:50:11;;;;;;;3.72;2.58;;;17.10;99.40;;;;;;6177499;28;20456;-86
2023/05/12 09:53:13;;;;;;;4.82;3.08;;;17.10;99.80;;;;;;6177282;28;20054;-87
2023/05/12 09:56:16;;;;;;;4.47;2.60;;;17.20;99.50;;;;;;6175197;28;20404;-85
2023/05/12 09:59:20;;;;;;;5.53;2.45;;;17.30;99.30;;;;;;6176112;28;20054;-75
2023/05/12 10:02:22;;;;;;;;;;;16.90;99.40;;;;;;6176736;28;20054;-76
2023/05/12 10:05:25;;;;;;;3.53;2.27;;;17.00;99.90;;;;;;6172047;28;19977;-76
2023/05/12 10:08:42;;;;;;;6.30;2.33;;;17.00;99.60;;;;;;6171290;28;20054;-76
2023/05/12 10:11:45;;;;;;;3.95;1.90;;;17.00;99.90;;;;;;6170242;28;20047;-75
2023/05/12 10:14:48;;;;;;;4.13;1.85;;;17.00;99.40;;;;;;6180378;28;20038;-82
2023/05/12 10:17:51;;;;;;;3.70;1.90;;;17.20;99.30;;;;;;6200247;28;20058;-82
2023/05/12 10:20:57;;;;;;;3.38;1.83;;;16.90;99.70;;;;;;6200250;28;20046;-82
2023/05/12 10:24:00;;;;;;;3.90;1.90;;;16.70;99.30;;;;;;6182904;28;20178;-82
2023/05/12 10:27:05;;;;;;;4.82;2.33;;;16.90;98.60;;;;;;6175442;28;20480;-83
2023/05/12 10:30:09;;;;;;;3.83;1.77;;;16.50;99.10;;;;;;6171921;28;20051;-84
2023/05/12 10:33:11;;;;;;;4.53;1.85;;;16.50;99.70;;;;;;6151713;29;20081;-84
2023/05/12 10:36:23;;;;;;;3.65;2.00;;;16.60;99.90;;;;;;6151994;29;20130;-86
2023/05/12 10:39:29;;;;;;;3.17;1.80;;;16.70;99.90;;;;;;6152163;29;20043;-85
2023/05/12 10:42:38;;;;;;;3.33;1.50;;;16.60;99.90;;;;;;6151809;29;20054;-84
2023/05/12 10:45:41;;;;;;;4.30;2.10;;;16.70;99.80;;;;;;6151986;29;20043;-84
2023/05/12 10:48:54;;;;;;;3.20;1.80;;;16.40;99.90;;;;;;6151662;29;20130;-84
2023/05/12 10:52:01;;;;;;;4.63;1.90;;;16.70;99.90;;;;;;6151719;29;20062;-84
2023/05/12 10:55:04;;;;;;;3.88;1.90;;;16.80;99.90;;;;;;6151603;29;20488;-85
2023/05/12 10:58:10;;;;;;;4.80;2.65;;;16.90;99.70;;;;;;6151468;29;20515;-84
2023/05/12 11:01:12;;;;;;;4.82;2.17;;;16.90;99.90;;;;;;6151477;29;20051;-85
2023/05/12 11:04:18;;;;;;;5.07;1.75;;;16.90;99.90;;;;;;6151780;29;20044;-83
2023/05/12 11:07:25;;;;;;;6.40;3.17;;;16.90;99.60;;;;;;6151542;29;20058;-83
2023/05/12 11:10:29;;;;;;;5.13;2.10;;;16.90;99.50;;;;;;6151472;29;20070;-83
2023/05/12 11:13:31;;;;;;;3.92;1.95;;;16.70;99.60;;;;;;6151290;29;20058;-83
2023/05/12 11:16:33;;;;;;;3.63;1.60;;;17.10;99.50;;;;;;6151332;29;20047;-83
2023/05/12 11:19:35;;;;;;;3.10;1.50;;;17.30;99.20;;;;;;6151316;29;20481;-83
2023/05/12 11:22:41;;;;;;;3.10;1.52;;;17.30;98.90;;;;;;6151038;29;20087;-83
2023/05/12 11:25:44;;;;;;;4.22;1.75;;;17.30;99.10;;;;;;6151508;29;20122;-83
2023/05/12 11:28:46;;;;;;;3.00;1.52;;;17.10;98.90;;;;;;6151079;29;20074;-83
2023/05/12 11:31:49;;;;;;;3.47;1.50;;;16.90;99.70;;;;;;6164278;28;20062;-83
2023/05/12 11:34:51;;;;;;;4.20;2.20;;;17.00;99.50;;;;;;6174914;28;20053;-83
2023/05/12 11:37:54;;;;;;;4.00;1.60;;;17.00;99.00;;;;;;6178686;28;20484;-83
2023/05/12 11:40:56;;;;;;;3.53;1.75;;;16.90;99.30;;;;;;6180043;28;20137;-83
2023/05/12 11:43:58;;;;;;;3.22;1.67;;;17.20;99.30;;;;;;6180479;28;20043;-83
2023/05/12 11:47:03;;;;;;;6.72;2.30;;;17.50;98.30;;;;;;6179799;28;20392;-82
2023/05/12 11:50:07;;;;;;;4.05;2.00;;;17.20;99.20;;;;;;6179572;28;20405;-83
2023/05/12 11:53:13;;;;;;;3.75;2.10;;;17.00;99.90;;;;;;6180055;28;20059;-84
2023/05/12 11:56:19;;;;;;;3.60;2.13;;;17.10;98.60;;;;;;6177288;28;20567;-83
2023/05/12 11:59:32;;;;;;;4.55;2.03;;;17.30;99.70;;;;;;6178675;28;20499;-82
2023/05/12 12:02:36;;;;;;;7.40;2.33;;;17.30;99.60;;;;;;6179067;28;20046;-82
2023/05/12 12:05:38;;;;;;;3.75;2.17;;;17.30;99.90;;;;;;6177791;28;20047;-83
2023/05/12 12:08:52;;;;;;;4.60;2.23;;;17.20;99.90;;;;;;6179256;28;20055;-83
2023/05/12 12:11:54;;;;;;;4.00;2.47;;;17.30;99.90;;;;;;6179666;28;20051;-83
2023/05/12 12:14:58;;;;;;;4.05;2.08;;;17.40;99.70;;;;;;6177436;28;20050;-84
2023/05/12 12:18:03;;;;;;;4.93;1.95;;;17.30;99.90;;;;;;6178945;28;20073;-85
2023/05/12 12:21:05;;;;;;;3.63;1.80;;;16.90;99.90;;;;;;6152489;28;20184;-86
2023/05/12 12:24:09;;;;;;;5.07;2.10;;;17.00;99.90;;;;;;6164009;28;20062;-84
2023/05/12 12:27:10;;;;;;;3.15;1.80;;;17.10;99.90;;;;;;6176984;28;20055;-83
2023/05/12 12:30:14;;;;;;;3.42;1.40;;;17.00;99.80;;;;;;6175276;28;20519;-82
2023/05/12 12:33:16;;;;;;;5.80;1.52;;;17.00;99.90;;;;;;6174705;28;20057;-83
2023/05/12 12:36:18;;;;;;;2.85;1.40;;;17.20;99.90;;;;;;6175590;28;20054;-83
2023/05/12 12:39:22;;;;;;;3.47;1.38;;;17.30;99.60;;;;;;6175335;28;20051;-82
2023/05/12 12:42:23;;;;;;;2.53;1.23;;;17.00;99.60;;;;;;6175689;28;20054;-83
2023/05/12 12:45:26;;;;;;;2.97;1.13;;;16.90;99.60;;;;;;6174405;28;20089;-82
2023/05/12 12:48:28;;;;;;;3.13;1.20;;;16.90;99.60;;;;;;6175196;28;20046;-82
2023/05/12 12:51:31;;;;;;;4.35;1.30;;;17.00;99.20;;;;;;6152413;28;20055;-82
2023/05/12 12:54:34;;;;;;;11.35;2.00;;;17.00;98.80;;;;;;6181341;28;20828;-82
2023/05/12 12:57:36;;;;;;;6.28;1.98;;;17.00;99.00;;;;;;6173925;28;20058;-81
2023/05/12 13:00:38;;;;;;;3.55;1.50;;;16.80;99.30;;;;;;6175024;28;20055;-80
2023/05/12 13:03:40;;;;;;;4.10;1.67;;;16.90;99.30;;;;;;6173793;28;20400;-80
2023/05/12 13:06:42;;;;;;;5.93;2.63;;;16.80;99.40;;;;;;6150597;29;20054;-80
2023/05/12 13:09:45;;;;;;;5.50;2.40;;;16.70;99.40;;;;;;6167844;28;20046;-82
2023/05/12 13:12:47;;;;;;;3.13;1.85;;;16.70;99.40;;;;;;6172046;28;20137;-81
2023/05/12 13:15:49;;;;;;;5.53;1.50;;;16.60;99.70;;;;;;6174943;28;20062;-82
2023/05/12 13:18:50;;;;;;;2.92;1.30;;;16.70;99.60;;;;;;6173240;28;20050;-81
2023/05/12 13:21:52;;;;;;;3.63;2.00;;;16.60;99.90;;;;;;6173760;28;20039;-82
2023/05/12 13:24:56;;;;;;;5.70;2.22;;;16.60;99.90;;;;;;6173401;28;20051;-82
2023/05/12 13:27:58;;;;;;;9.35;2.33;;;16.60;99.90;;;;;;6174070;28;20412;-82
2023/05/12 13:30:59;;;;;;;2.83;1.33;;;16.50;99.90;;;;;;6173061;28;20058;-82
2023/05/12 13:34:01;;;;;;;4.15;1.50;;;16.40;99.90;;;;;;6173285;28;20160;-82
2023/05/12 13:37:03;;;;;;;2.40;1.30;;;16.60;99.90;;;;;;6174358;28;20047;-82
2023/05/12 13:40:09;;;;;;;4.82;1.90;;;16.60;99.90;;;;;;6174365;28;20047;-82
2023/05/12 13:43:11;;;;;;;3.95;2.15;;;16.60;99.90;;;;;;6171586;28;20058;-82
2023/05/12 13:46:12;;;;;;;2.92;1.15;;;16.70;99.90;;;;;;6173057;28;20058;-82
2023/05/12 13:49:14;;;;;;;4.45;1.45;;;16.70;99.90;;;;;;6173441;28;20054;-82
2023/05/12 13:52:16;;;;;;;3.80;1.15;;;16.60;99.90;;;;;;6173351;28;20055;-82
2023/05/12 13:55:20;;;;;;;1.95;0.90;;;16.70;99.90;;;;;;6172703;28;20481;-83
2023/05/12 13:58:22;;;;;;;3.35;1.15;;;16.50;99.90;;;;;;6173479;28;20047;-82
2023/05/12 14:01:23;;;;;;;2.47;0.80;;;16.50;99.90;;;;;;6172395;28;20125;-82
2023/05/12 14:04:25;;;;;;;2.50;0.85;;;16.30;99.60;;;;;;6172781;28;20054;-82
2023/05/12 14:07:28;;;;;;;1.77;0.65;;;16.30;99.70;;;;;;6173763;28;20058;-82
2023/05/12 14:10:34;;;;;;;1.88;0.60;;;16.20;99.40;;;;;;6171138;28;20051;-82
2023/05/12 14:13:36;;;;;;;2.10;0.68;;;16.20;98.20;;;;;;6171517;28;20057;-82
2023/05/12 14:16:38;;;;;;;2.35;1.10;;;16.20;98.20;;;;;;6173043;28;20484;-82
2023/05/12 14:19:39;;;;;;;4.07;0.73;;;16.00;97.90;;;;;;6172673;28;20047;-82
2023/05/12 14:22:41;;;;;;;2.92;0.80;;;16.00;98.60;;;;;;6172030;28;20621;-82
2023/05/12 14:25:45;;;;;;;2.05;0.80;;;16.20;98.30;;;;;;6171969;28;20239;-82
2023/05/12 14:28:46;;;;;;;4.10;1.00;;;16.20;98.60;;;;;;6172717;28;20057;-82
2023/05/12 14:31:48;;;;;;;2.47;0.77;;;16.20;99.10;;;;;;6171320;28;20369;-83
2023/05/12 14:34:50;;;;;;;3.03;0.70;;;16.30;99.10;;;;;;6191853;28;20054;-81
2023/05/12 14:37:52;;;;;;;2.65;0.90;;;16.20;98.40;;;;;;6196847;28;20050;-82
2023/05/12 14:40:55;;;;;;;2.47;0.80;;;16.10;98.80;;;;;;6173690;28;20518;-82
2023/05/12 14:43:58;;;;;;;2.58;0.90;;;16.10;98.70;;;;;;6155987;28;20506;-81
2023/05/12 14:47:00;;;;;;;3.20;1.10;;;16.20;98.70;;;;;;6172761;28;20061;-81
2023/05/12 14:50:02;;;;;;;2.90;1.15;;;16.30;98.50;;;;;;6171965;28;20138;-82
2023/05/12 14:53:04;;;;;;;3.25;1.40;;;16.30;98.50;;;;;;6172551;28;20055;-81
2023/05/12 14:56:07;;;;;;;3.33;1.10;;;16.30;98.60;;;;;;6172338;28;20058;-84
2023/05/12 14:59:09;;;;;;;4.80;1.90;;;16.40;98.70;;;;;;6172567;28;20051;-83
2023/05/12 15:02:11;;;;;;;3.33;1.48;;;16.50;98.10;;;;;;6173499;28;20051;-83
2023/05/12 15:05:14;;;;;;;3.28;1.50;;;16.70;98.10;;;;;;6172185;28;20144;-82
2023/05/12 15:08:17;;;;;;;4.33;1.50;;;16.80;98.30;;;;;;6178006;28;20054;-82
2023/05/12 15:11:20;;;;;;;6.95;1.70;;;17.00;97.70;;;;;;6182317;28;20050;-82
2023/05/12 15:14:22;;;;;;;3.00;1.60;;;17.40;97.40;;;;;;6176911;28;20062;-79
2023/05/12 15:17:26;;;;;;;4.65;1.70;;;17.70;97.00;;;;;;6179374;28;20089;-76
2023/05/12 15:20:27;;;;;;;4.22;1.85;;;17.60;96.60;;;;;;6196339;28;20077;-80
2023/05/12 15:23:29;;;;;;;5.35;2.53;;;17.80;96.90;;;;;;6176557;28;20055;-77
2023/05/12 15:26:32;;;;;;;5.38;2.65;;;18.10;96.50;;;;;;6174649;28;20185;-76
2023/05/12 15:29:38;;;;;;;4.57;2.50;;;18.20;96.20;;;;;;6170809;28;20058;-76
2023/05/12 15:32:40;;;;;;;3.38;2.30;;;18.50;95.60;;;;;;6170136;28;20047;-76
2023/05/12 15:35:42;;;;;;;3.90;2.20;;;18.30;95.50;;;;;;6195447;28;20058;-78
2023/05/12 15:38:45;;;;;;;4.40;2.40;;;18.20;95.80;;;;;;6193175;28;20057;-79
2023/05/12 15:41:49;;;;;;;6.57;2.45;;;17.90;95.90;;;;;;6195857;28;20053;-77
2023/05/12 15:44:51;;;;;;;5.38;2.78;;;18.10;96.30;;;;;;6170293;28;20045;-81
2023/05/12 15:47:53;;;;;;;4.10;2.58;;;18.00;95.70;;;;;;6176075;28;20050;-78
2023/05/12 15:50:55;;;;;;;5.57;2.65;;;18.10;95.80;;;;;;6195651;28;20050;-86
2023/05/12 15:53:59;;;;;;;3.83;2.35;;;18.00;95.50;;;;;;6181100;28;20058;-75
2023/05/12 15:57:03;;;;;;;4.15;2.83;;;18.20;95.80;;;;;;6171370;28;20067;-80
2023/05/12 16:00:06;;;;;;;;;;;18.40;96.00;;;;;;6171390;28;20043;-82
2023/05/12 16:03:08;;;;;;;5.75;3.13;;;18.30;96.20;;;;;;6171387;28;19929;-80
2023/05/12 16:06:10;;;;;;;3.88;2.83;;;18.30;96.40;;;;;;6170535;28;20415;-76
2023/05/12 16:09:12;;;;;;;4.68;3.05;;;18.30;96.50;;;;;;6168357;28;20051;-80
2023/05/12 16:12:16;;;;;;;6.18;3.47;;;18.60;96.50;;;;;;6171386;28;20452;-83
2023/05/12 16:15:18;;;;;;;4.78;2.80;;;18.30;96.80;;;;;;6171506;28;20496;-72
2023/05/12 16:18:20;;;;;;;6.97;3.05;;;18.90;97.10;;;;;;6174166;28;20061;-73
2023/05/12 16:21:22;;;;;;;6.05;3.40;;;19.30;96.30;;;;;;6169291;28;20057;-76
2023/05/12 16:24:27;;;;;;;6.00;3.25;;;19.10;95.50;;;;;;6177305;28;20055;-75
2023/05/12 16:27:32;;;;;;;4.30;3.03;;;19.00;95.40;;;;;;6174902;28;20047;-75
2023/05/12 16:30:34;;;;;;;5.57;3.08;;;19.10;95.50;;;;;;6171875;28;20055;-75
2023/05/12 16:33:36;;;;;;;5.65;3.45;;;19.10;95.80;;;;;;6151505;29;20047;-74
2023/05/12 16:36:37;;;;;;;5.57;3.10;;;18.60;95.60;;;;;;6151566;29;20130;-74
2023/05/12 16:39:39;;;;;;;3.90;2.67;;;19.20;96.60;;;;;;6151241;29;20555;-74
2023/05/12 16:42:43;;;;;;;4.75;3.15;;;19.10;96.00;;;;;;6150760;29;20055;-74
2023/05/12 16:45:44;;;;;;;4.95;2.90;;;19.00;95.60;;;;;;6150243;29;20062;-74
2023/05/12 16:48:46;;;;;;;4.10;2.60;;;19.00;95.30;;;;;;6151255;29;20160;-74
2023/05/12 16:51:49;;;;;;;5.43;3.13;;;18.70;95.90;;;;;;6149477;28;20062;-73
2023/05/12 16:54:51;;;;;;;5.10;2.95;;;18.80;95.90;;;;;;6150440;29;20512;-73
2023/05/12 16:57:54;;;;;;;5.25;3.08;;;18.60;95.30;;;;;;6150911;29;20469;-75
2023/05/12 17:00:55;;;;;;;5.47;3.10;;;18.40;94.90;;;;;;6150400;29;20047;-73
2023/05/12 17:03:57;;;;;;;5.68;2.90;;;18.20;94.70;;;;;;6150158;29;20067;-73
2023/05/12 17:07:00;;;;;;;4.63;2.85;;;17.80;95.30;;;;;;6149480;29;20070;-73
2023/05/12 17:10:02;;;;;;;6.45;3.20;;;18.00;95.90;;;;;;6147933;29;20137;-72
2023/05/12 17:13:05;;;;;;;6.05;2.95;;;17.80;95.30;;;;;;6148569;28;20050;-73
2023/05/12 17:16:07;;;;;;;6.45;3.33;;;17.40;96.20;;;;;;6148662;29;20421;-73
2023/05/12 17:19:09;;;;;;;4.50;3.10;;;17.50;96.10;;;;;;6146352;29;20413;-73
2023/05/12 17:22:11;;;;;;;4.60;3.00;;;17.70;95.90;;;;;;6148477;29;20051;-73
2023/05/12 17:25:14;;;;;;;5.13;2.78;;;17.70;96.20;;;;;;6150320;29;20051;-75
2023/05/12 17:28:17;;;;;;;5.80;3.38;;;17.40;96.70;;;;;;6145693;28;20082;-73
2023/05/12 17:31:19;;;;;;;5.88;3.60;;;17.30;97.30;;;;;;6159041;28;20397;-73
2023/05/12 17:34:21;;;;;;;5.55;3.53;;;17.30;97.60;;;;;;6149800;28;20059;-74
2023/05/12 17:37:23;;;;;;;5.03;3.47;;;17.40;97.80;;;;;;6163927;28;20047;-73
2023/05/12 17:40:25;;;;;;;4.50;3.33;;;17.30;98.40;;;;;;6173978;28;20054;-73
2023/05/12 17:43:28;;;;;;;5.63;3.42;;;17.30;98.50;;;;;;6173576;28;20069;-73
2023/05/12 17:46:30;;;;;;;4.60;3.10;;;17.30;98.70;;;;;;6151052;28;20051;-74
2023/05/12 17:49:32;;;;;;;5.95;3.28;;;17.10;98.90;;;;;;6171834;28;20488;-74
2023/05/12 17:52:34;;;;;;;6.32;3.13;;;16.90;99.10;;;;;;6174037;28;20050;-73
2023/05/12 17:55:36;;;;;;;6.35;3.40;;;16.90;99.60;;;;;;6173371;28;20211;-72
2023/05/12 17:58:40;;;;;;;6.00;3.38;;;16.80;99.10;;;;;;6172394;28;20118;-73
2023/05/12 18:01:43;;;;;;;4.78;3.33;;;16.70;99.70;;;;;;6172670;28;20197;-73
2023/05/12 18:04:45;;;;;;;6.13;3.20;;;16.80;99.60;;;;;;6171783;28;20054;-73
2023/05/12 18:07:46;;;;;;;4.85;3.00;;;16.70;99.90;;;;;;6172844;28;20050;-80
2023/05/12 18:10:48;;;;;;;4.63;2.80;;;16.50;99.50;;;;;;6170171;28;20544;-81
2023/05/12 18:13:52;;;;;;;4.72;3.08;;;16.20;99.40;;;;;;6172663;28;20050;-81
2023/05/12 18:16:54;;;;;;;5.18;2.80;;;15.90;99.30;;;;;;6171983;28;20121;-81
2023/05/12 18:19:56;;;;;;;4.72;2.75;;;16.10;99.30;;;;;;6172120;28;20058;-81
2023/05/12 18:22:58;;;;;;;4.70;2.70;;;16.10;99.30;;;;;;6171916;28;20054;-81
2023/05/12 18:26:00;;;;;;;7.03;2.72;;;15.90;99.50;;;;;;6170983;28;20058;-81
2023/05/12 18:29:03;;;;;;;4.47;2.40;;;15.70;99.90;;;;;;6159981;28;20065;-83
2023/05/12 18:32:05;;;;;;;4.22;2.60;;;15.70;99.90;;;;;;6172157;28;20047;-80
2023/05/12 18:35:08;;;;;;;4.13;2.35;;;15.60;99.90;;;;;;6171572;28;20050;-81
2023/05/12 18:38:10;;;;;;;4.63;2.50;;;15.80;99.90;;;;;;6172090;28;20062;-81
2023/05/12 18:41:12;;;;;;;3.90;2.30;;;15.60;99.90;;;;;;6172674;28;20417;-81
2023/05/12 18:44:16;;;;;;;5.53;2.70;;;15.50;99.90;;;;;;6168309;28;20086;-80
2023/05/12 18:47:18;;;;;;;4.00;2.55;;;15.60;99.90;;;;;;6162458;28;20058;-81
2023/05/12 18:50:20;;;;;;;5.18;2.47;;;15.60;99.90;;;;;;6150703;28;20047;-85
2023/05/12 18:53:22;;;;;;;4.38;2.60;;;15.50;99.90;;;;;;6169748;28;20059;-82
2023/05/12 18:56:24;;;;;;;4.47;2.80;;;15.30;99.90;;;;;;6168519;28;20484;-82
2023/05/12 18:59:27;;;;;;;4.60;2.53;;;15.20;99.90;;;;;;6169830;28;20054;-82
2023/05/12 19:02:29;;;;;;;3.70;2.50;;;15.10;99.90;;;;;;6169054;28;20057;-83
2023/05/12 19:05:31;;;;;;;4.68;2.58;;;15.00;99.90;;;;;;6166754;28;20058;-83
2023/05/12 19:08:33;;;;;;;5.82;3.05;;;15.10;99.90;;;;;;6167300;28;20050;-80
2023/05/12 19:11:35;;;;;;;4.35;2.80;;;14.90;99.90;;;;;;6169451;28;20054;-81
2023/05/12 19:14:38;;;;;;;5.05;2.58;;;14.90;99.90;;;;;;6168603;28;20510;-81
2023/05/12 19:17:40;;;;;;;5.07;2.58;;;15.00;99.90;;;;;;6175046;28;20137;-81
2023/05/12 19:20:43;;;;;;;4.18;2.70;;;15.10;99.90;;;;;;6169189;28;20101;-81
2023/05/12 19:23:44;;;;;;;4.07;2.35;;;15.30;99.90;;;;;;6167875;28;20565;-80
2023/05/12 19:26:46;;;;;;;3.40;2.10;;;15.30;99.90;;;;;;6183518;28;20058;-82
2023/05/12 19:29:49;;;;;;;3.10;1.77;;;15.30;99.90;;;;;;6169028;28;20054;-77
2023/05/12 19:32:52;;;;;;;3.50;2.10;;;15.30;99.90;;;;;;6168386;28;20584;-80
2023/05/12 19:35:54;;;;;;;3.42;2.05;;;15.30;99.90;;;;;;6167837;28;20492;-78
2023/05/12 19:38:58;;;;;;;3.72;2.10;;;15.30;99.90;;;;;;6144941;29;20051;-83
2023/05/12 19:42:00;;;;;;;4.50;2.22;;;15.20;99.90;;;;;;6145152;29;20059;-83
2023/05/12 19:45:04;;;;;;;4.47;1.90;;;15.10;99.90;;;;;;6147434;28;20051;-78
2023/05/12 19:48:07;;;;;;;3.83;2.08;;;15.20;99.90;;;;;;6168764;28;20059;-78
2023/05/12 19:51:09;;;;;;;3.23;1.70;;;15.00;99.90;;;;;;6168618;28;20062;-77
2023/05/12 19:54:12;;;;;;;3.63;2.10;;;15.00;99.90;;;;;;6168987;28;20325;-79
2023/05/12 19:57:14;;;;;;;3.03;1.88;;;14.90;99.90;;;;;;6168376;28;20065;-80
2023/05/12 20:00:20;;;;;;;3.30;1.98;;;14.80;99.90;;;;;;6171053;28;20520;-81
2023/05/12 20:03:22;;;;;;;2.80;1.70;;;14.90;99.90;;;;;;6149034;29;20425;-81
2023/05/12 20:06:24;;;;;;;3.00;1.58;;;15.10;99.90;;;;;;6163509;28;20514;-80
2023/05/12 20:09:26;;;;;;;3.75;2.38;;;14.80;99.90;;;;;;6170306;28;20065;-80
2023/05/12 20:12:28;;;;;;;4.43;1.70;;;14.90;99.90;;;;;;6188137;28;20061;-79
2023/05/12 20:15:33;;;;;;;3.90;1.90;;;15.00;99.90;;;;;;6181197;28;20054;-79
2023/05/12 20:18:34;;;;;;;2.80;1.50;;;14.80;99.90;;;;;;6181268;28;20058;-80
2023/05/12 20:21:36;;;;;;;2.95;1.70;;;14.90;99.90;;;;;;6173431;28;20058;-79
2023/05/12 20:24:38;;;;;;;3.13;1.48;;;14.90;99.90;;;;;;6172301;28;20051;-79
2023/05/12 20:27:40;;;;;;;3.47;1.67;;;14.80;99.90;;;;;;6185132;28;20061;-80
2023/05/12 20:30:43;;;;;;;3.38;1.67;;;14.80;99.90;;;;;;6172197;28;20496;-79
2023/05/12 20:33:45;;;;;;;4.75;2.10;;;14.70;99.90;;;;;;6172960;28;20061;-78
2023/05/12 20:36:47;;;;;;;3.83;1.75;;;14.50;99.90;;;;;;6171658;28;20054;-80
2023/05/12 20:39:49;;;;;;;4.88;1.85;;;14.40;99.90;;;;;;6173228;28;20050;-78
2023/05/12 20:42:51;;;;;;;3.35;1.77;;;14.30;99.90;;;;;;6172304;28;20053;-78
2023/05/12 20:45:54;;;;;;;2.83;1.50;;;14.20;99.90;;;;;;6171839;28;20427;-78
2023/05/12 20:48:56;;;;;;;3.33;1.58;;;14.30;99.90;;;;;;6172198;28;20051;-79
2023/05/12 20:51:58;;;;;;;3.30;1.73;;;14.40;99.90;;;;;;6172098;28;20054;-79
2023/05/12 20:55:00;;;;;;;3.10;1.75;;;14.40;99.90;;;;;;6171790;28;20381;-79
2023/05/12 20:58:02;;;;;;;4.57;1.65;;;14.50;99.90;;;;;;6173127;28;20177;-79
2023/05/12 21:01:06;;;;;;;4.70;2.35;;;14.40;99.90;;;;;;6172616;28;20050;-79
2023/05/12 21:04:08;;;;;;;3.33;1.80;;;14.50;99.90;;;;;;6172474;28;20063;-79
2023/05/12 21:07:10;;;;;;;4.22;1.88;;;14.60;99.90;;;;;;6169173;28;20423;-79
2023/05/12 21:10:12;;;;;;;3.05;1.70;;;14.40;99.90;;;;;;6169446;28;20197;-78
2023/05/12 21:13:14;;;;;;;3.53;1.88;;;14.40;99.90;;;;;;6170052;28;20054;-77
2023/05/12 21:16:18;;;;;;;4.03;1.80;;;14.40;99.90;;;;;;6171580;28;20066;-78
2023/05/12 21:19:20;;;;;;;3.30;1.90;;;14.40;99.90;;;;;;6174221;28;20447;-77
2023/05/12 21:22:21;;;;;;;5.63;1.83;;;14.60;99.90;;;;;;6174440;28;20055;-77
2023/05/12 21:25:24;;;;;;;3.78;1.63;;;14.50;99.90;;;;;;6173260;28;20051;-77
2023/05/12 21:28:26;;;;;;;3.38;1.73;;;14.50;99.90;;;;;;6174394;28;20062;-78
2023/05/12 21:31:29;;;;;;;3.50;1.73;;;14.50;99.90;;;;;;6174083;28;20512;-77
2023/05/12 21:34:32;;;;;;;5.20;2.40;;;14.50;99.90;;;;;;6173735;28;20050;-77
2023/05/12 21:37:34;;;;;;;4.20;2.00;;;14.30;99.90;;;;;;6174145;28;20055;-77
2023/05/12 21:40:36;;;;;;;5.35;2.00;;;14.10;99.90;;;;;;6173213;28;20562;-77
2023/05/12 21:43:38;;;;;;;2.75;1.55;;;14.00;99.90;;;;;;6173905;28;20054;-77
2023/05/12 21:46:41;;;;;;;3.03;1.80;;;14.20;99.90;;;;;;6173032;28;20047;-77
2023/05/12 21:49:43;;;;;;;4.38;2.22;;;14.40;99.90;;;;;;6173757;28;20050;-77
2023/05/12 21:52:45;;;;;;;4.75;2.72;;;14.40;99.90;;;;;;6173922;28;20054;-77
2023/05/12 21:55:49;;;;;;;4.28;2.00;;;14.20;99.90;;;;;;6173694;28;20145;-77
2023/05/12 21:58:51;;;;;;;3.45;1.75;;;14.10;99.90;;;;;;6174105;28;20061;-77
